sensor_id;sensor_type;location;lat;lon;timestamp;temperature;humidity
23267;DHT22;11802;53.160;8.214;2023-03-03T00:01:05;2.60;99.90
23267;DHT22;11802;53.160;8.214;2023-03-03T00:03:31;2.70;99.90
23267;DHT22;11802;53.160;8.214;2023-03-03T00:05:57;2.60;99.90
23267;DHT22;11802;53.160;8.214;2023-03-03T00:08:23;2.70;99.90
23267;DHT22;11802;53.160;8.214;2023-03-03T00:10:49;2.70;99.90
23267;DHT22;11802;53.160;8.214;2023-03-03T00:13:17;2.70;99.90
23267;DHT22;11802;53.160;8.214;2023-03-03T00:15:44;2.70;99.90
23267;DHT22;11802;53.160;8.214;2023-03-03T00:18:27;2.70;99.90
23267;DHT22;11802;53.160;8.214;2023-03-03T00:20:57;2.70;99.90
23267;DHT22;11802;53.160;8.214;2023-03-03T00:23:38;2.70;99.90
23267;DHT22;11802;53.160;8.214;2023-03-03T00:28:50;2.70;99.90
23267;DHT22;11802;53.160;8.214;2023-03-03T00:31:21;2.70;99.90
23267;DHT22;11802;53.160;8.214;2023-03-03T00:33:54;2.70;99.90
23267;DHT22;11802;53.160;8.214;2023-03-03T00:36:38;2.70;99.90
23267;DHT22;11802;53.160;8.214;2023-03-03T00:41:49;2.80;99.90
23267;DHT22;11802;53.160;8.214;2023-03-03T00:44:31;2.80;99.90
23267;DHT22;11802;53.160;8.214;2023-03-03T00:49:46;2.80;99.90
23267;DHT22;11802;53.160;8.214;2023-03-03T00:52:15;2.80;99.90
23267;DHT22;11802;53.160;8.214;2023-03-03T00:54:41;2.90;99.90
23267;DHT22;11802;53.160;8.214;2023-03-03T00:57:07;2.90;99.90
23267;DHT22;11802;53.160;8.214;2023-03-03T00:59:32;3.00;99.90
23267;DHT22;11802;53.160;8.214;2023-03-03T01:01:58;3.00;99.90
23267;DHT22;11802;53.160;8.214;2023-03-03T01:04:23;3.00;99.90
23267;DHT22;11802;53.160;8.214;2023-03-03T01:06:49;3.00;99.90
23267;DHT22;11802;53.160;8.214;2023-03-03T01:09:14;3.00;99.90
23267;DHT22;11802;53.160;8.214;2023-03-03T01:11:40;3.00;99.90
23267;DHT22;11802;53.160;8.214;2023-03-03T01:14:06;3.00;99.90
23267;DHT22;11802;53.160;8.214;2023-03-03T01:16:33;3.00;99.90
23267;DHT22;11802;53.160;8.214;2023-03-03T01:19:00;3.00;99.90
23267;DHT22;11802;53.160;8.214;2023-03-03T01:21:25;3.00;99.90
23267;DHT22;11802;53.160;8.214;2023-03-03T01:23:51;3.00;99.90
23267;DHT22;11802;53.160;8.214;2023-03-03T01:26:16;3.00;99.90
23267;DHT22;11802;53.160;8.214;2023-03-03T01:28:42;3.00;99.90
23267;DHT22;11802;53.160;8.214;2023-03-03T01:31:08;3.00;99.90
23267;DHT22;11802;53.160;8.214;2023-03-03T01:33:34;3.10;99.90
23267;DHT22;11802;53.160;8.214;2023-03-03T01:36:01;3.00;99.90
23267;DHT22;11802;53.160;8.214;2023-03-03T01:38:27;3.00;99.90
23267;DHT22;11802;53.160;8.214;2023-03-03T01:40:54;3.00;99.90
23267;DHT22;11802;53.160;8.214;2023-03-03T01:43:21;3.00;99.90
23267;DHT22;11802;53.160;8.214;2023-03-03T01:48:37;3.00;99.90
23267;DHT22;11802;53.160;8.214;2023-03-03T01:56:05;3.00;99.90
23267;DHT22;11802;53.160;8.214;2023-03-03T01:58:38;3.00;99.90
23267;DHT22;11802;53.160;8.214;2023-03-03T02:01:09;3.00;99.90
23267;DHT22;11802;53.160;8.214;2023-03-03T02:03:37;3.00;99.90
23267;DHT22;11802;53.160;8.214;2023-03-03T02:06:07;3.00;99.90
23267;DHT22;11802;53.160;8.214;2023-03-03T02:08:44;3.00;99.90
23267;DHT22;11802;53.160;8.214;2023-03-03T02:11:12;2.90;99.90
23267;DHT22;11802;53.160;8.214;2023-03-03T02:13:39;3.00;99.90
23267;DHT22;11802;53.160;8.214;2023-03-03T02:16:04;3.00;99.90
23267;DHT22;11802;53.160;8.214;2023-03-03T02:18:30;3.10;99.90
23267;DHT22;11802;53.160;8.214;2023-03-03T02:21:09;3.10;99.90
23267;DHT22;11802;53.160;8.214;2023-03-03T02:24:15;3.10;99.90
23267;DHT22;11802;53.160;8.214;2023-03-03T02:26:39;3.10;99.90
23267;DHT22;11802;53.160;8.214;2023-03-03T02:29:06;3.10;99.90
23267;DHT22;11802;53.160;8.214;2023-03-03T02:31:32;3.10;99.90
23267;DHT22;11802;53.160;8.214;2023-03-03T02:33:58;3.10;99.90
23267;DHT22;11802;53.160;8.214;2023-03-03T02:36:31;3.10;99.90
23267;DHT22;11802;53.160;8.214;2023-03-03T02:44:29;3.10;99.90
23267;DHT22;11802;53.160;8.214;2023-03-03T02:46:56;3.10;99.90
23267;DHT22;11802;53.160;8.214;2023-03-03T02:49:24;3.10;99.90
23267;DHT22;11802;53.160;8.214;2023-03-03T02:51:49;3.10;99.90
23267;DHT22;11802;53.160;8.214;2023-03-03T02:54:17;3.10;99.90
23267;DHT22;11802;53.160;8.214;2023-03-03T02:56:43;3.10;99.90
23267;DHT22;11802;53.160;8.214;2023-03-03T02:59:08;3.10;99.90
23267;DHT22;11802;53.160;8.214;2023-03-03T03:01:34;3.00;99.90
23267;DHT22;11802;53.160;8.214;2023-03-03T03:04:14;3.00;99.90
23267;DHT22;11802;53.160;8.214;2023-03-03T03:06:40;3.00;99.90
23267;DHT22;11802;53.160;8.214;2023-03-03T03:09:07;2.90;99.90
23267;DHT22;11802;53.160;8.214;2023-03-03T03:11:34;3.00;99.90
23267;DHT22;11802;53.160;8.214;2023-03-03T03:14:00;2.90;99.90
23267;DHT22;11802;53.160;8.214;2023-03-03T03:16:26;2.90;99.90
23267;DHT22;11802;53.160;8.214;2023-03-03T03:18:52;2.90;99.90
23267;DHT22;11802;53.160;8.214;2023-03-03T03:21:17;2.90;99.90
23267;DHT22;11802;53.160;8.214;2023-03-03T03:23:43;2.90;99.90
23267;DHT22;11802;53.160;8.214;2023-03-03T03:26:09;2.90;99.90
23267;DHT22;11802;53.160;8.214;2023-03-03T03:28:35;3.00;99.90
23267;DHT22;11802;53.160;8.214;2023-03-03T03:31:01;3.00;99.90
23267;DHT22;11802;53.160;8.214;2023-03-03T03:33:27;3.00;99.90
23267;DHT22;11802;53.160;8.214;2023-03-03T03:35:53;3.00;99.90
23267;DHT22;11802;53.160;8.214;2023-03-03T03:38:20;3.00;99.90
23267;DHT22;11802;53.160;8.214;2023-03-03T03:40:46;3.00;99.90
23267;DHT22;11802;53.160;8.214;2023-03-03T03:43:11;3.00;99.90
23267;DHT22;11802;53.160;8.214;2023-03-03T03:45:37;3.00;99.90
23267;DHT22;11802;53.160;8.214;2023-03-03T03:48:03;3.00;99.90
23267;DHT22;11802;53.160;8.214;2023-03-03T03:50:29;3.00;99.90
23267;DHT22;11802;53.160;8.214;2023-03-03T03:52:55;3.00;99.90
23267;DHT22;11802;53.160;8.214;2023-03-03T03:55:20;3.00;99.90
23267;DHT22;11802;53.160;8.214;2023-03-03T03:57:47;3.00;99.90
23267;DHT22;11802;53.160;8.214;2023-03-03T04:00:14;3.00;99.90
23267;DHT22;11802;53.160;8.214;2023-03-03T04:02:39;3.00;99.90
23267;DHT22;11802;53.160;8.214;2023-03-03T04:05:05;3.00;99.90
23267;DHT22;11802;53.160;8.214;2023-03-03T04:07:31;3.10;99.90
23267;DHT22;11802;53.160;8.214;2023-03-03T04:09:57;3.10;99.90
23267;DHT22;11802;53.160;8.214;2023-03-03T04:12:22;3.10;99.90
23267;DHT22;11802;53.160;8.214;2023-03-03T04:14:48;3.10;99.90
23267;DHT22;11802;53.160;8.214;2023-03-03T04:17:21;3.10;99.90
23267;DHT22;11802;53.160;8.214;2023-03-03T04:19:47;3.10;99.90
23267;DHT22;11802;53.160;8.214;2023-03-03T04:22:13;3.10;99.90
23267;DHT22;11802;53.160;8.214;2023-03-03T04:24:39;3.10;99.90
23267;DHT22;11802;53.160;8.214;2023-03-03T04:27:05;3.10;99.90
23267;DHT22;11802;53.160;8.214;2023-03-03T04:29:31;3.00;99.90
23267;DHT22;11802;53.160;8.214;2023-03-03T04:31:56;3.00;99.90
23267;DHT22;11802;53.160;8.214;2023-03-03T04:34:22;3.00;99.90
23267;DHT22;11802;53.160;8.214;2023-03-03T04:36:48;3.10;99.90
23267;DHT22;11802;53.160;8.214;2023-03-03T04:39:13;3.10;99.90
23267;DHT22;11802;53.160;8.214;2023-03-03T04:41:39;3.10;99.90
23267;DHT22;11802;53.160;8.214;2023-03-03T04:44:04;3.10;99.90
23267;DHT22;11802;53.160;8.214;2023-03-03T04:46:30;3.10;99.90
23267;DHT22;11802;53.160;8.214;2023-03-03T04:48:56;3.10;99.90
23267;DHT22;11802;53.160;8.214;2023-03-03T04:51:21;3.10;99.90
23267;DHT22;11802;53.160;8.214;2023-03-03T04:53:47;3.10;99.90
23267;DHT22;11802;53.160;8.214;2023-03-03T04:56:13;3.10;99.90
23267;DHT22;11802;53.160;8.214;2023-03-03T04:58:38;3.20;99.90
23267;DHT22;11802;53.160;8.214;2023-03-03T05:01:04;3.20;99.90
23267;DHT22;11802;53.160;8.214;2023-03-03T05:03:30;3.20;99.90
23267;DHT22;11802;53.160;8.214;2023-03-03T05:05:55;3.20;99.90
23267;DHT22;11802;53.160;8.214;2023-03-03T05:08:21;3.20;99.90
23267;DHT22;11802;53.160;8.214;2023-03-03T05:10:51;3.20;99.90
23267;DHT22;11802;53.160;8.214;2023-03-03T05:13:17;3.20;99.90
23267;DHT22;11802;53.160;8.214;2023-03-03T05:15:43;3.20;99.90
23267;DHT22;11802;53.160;8.214;2023-03-03T05:18:13;3.20;99.90
23267;DHT22;11802;53.160;8.214;2023-03-03T05:20:39;3.20;99.90
23267;DHT22;11802;53.160;8.214;2023-03-03T05:23:05;3.20;99.90
23267;DHT22;11802;53.160;8.214;2023-03-03T05:25:31;3.20;99.90
23267;DHT22;11802;53.160;8.214;2023-03-03T05:27:56;3.20;99.90
23267;DHT22;11802;53.160;8.214;2023-03-03T05:30:22;3.10;99.90
23267;DHT22;11802;53.160;8.214;2023-03-03T05:32:47;3.00;99.90
23267;DHT22;11802;53.160;8.214;2023-03-03T05:35:13;2.90;99.90
23267;DHT22;11802;53.160;8.214;2023-03-03T05:37:40;2.80;99.90
23267;DHT22;11802;53.160;8.214;2023-03-03T05:40:11;2.70;99.90
23267;DHT22;11802;53.160;8.214;2023-03-03T05:42:37;2.60;99.90
23267;DHT22;11802;53.160;8.214;2023-03-03T05:45:03;2.60;99.90
23267;DHT22;11802;53.160;8.214;2023-03-03T05:47:28;2.70;99.90
23267;DHT22;11802;53.160;8.214;2023-03-03T05:49:54;2.70;99.90
23267;DHT22;11802;53.160;8.214;2023-03-03T05:52:19;2.70;99.90
23267;DHT22;11802;53.160;8.214;2023-03-03T05:54:46;2.80;99.90
23267;DHT22;11802;53.160;8.214;2023-03-03T05:57:11;2.80;99.90
23267;DHT22;11802;53.160;8.214;2023-03-03T05:59:37;2.80;99.90
23267;DHT22;11802;53.160;8.214;2023-03-03T06:02:02;2.90;99.90
23267;DHT22;11802;53.160;8.214;2023-03-03T06:04:28;2.80;99.90
23267;DHT22;11802;53.160;8.214;2023-03-03T06:06:53;2.80;99.90
23267;DHT22;11802;53.160;8.214;2023-03-03T06:09:19;2.80;99.90
23267;DHT22;11802;53.160;8.214;2023-03-03T06:11:45;2.80;99.90
23267;DHT22;11802;53.160;8.214;2023-03-03T06:14:10;2.80;99.90
23267;DHT22;11802;53.160;8.214;2023-03-03T06:16:36;2.80;99.90
23267;DHT22;11802;53.160;8.214;2023-03-03T06:19:02;2.70;99.90
23267;DHT22;11802;53.160;8.214;2023-03-03T06:21:27;2.70;99.90
23267;DHT22;11802;53.160;8.214;2023-03-03T06:23:53;2.60;99.90
23267;DHT22;11802;53.160;8.214;2023-03-03T06:26:18;2.70;99.90
23267;DHT22;11802;53.160;8.214;2023-03-03T06:28:44;2.70;99.90
23267;DHT22;11802;53.160;8.214;2023-03-03T06:31:09;2.70;99.90
23267;DHT22;11802;53.160;8.214;2023-03-03T06:33:35;2.80;99.90
23267;DHT22;11802;53.160;8.214;2023-03-03T06:36:01;2.70;99.90
23267;DHT22;11802;53.160;8.214;2023-03-03T06:38:27;2.70;99.90
23267;DHT22;11802;53.160;8.214;2023-03-03T06:40:52;2.70;99.90
23267;DHT22;11802;53.160;8.214;2023-03-03T06:43:18;2.70;99.90
23267;DHT22;11802;53.160;8.214;2023-03-03T06:45:44;2.70;99.90
23267;DHT22;11802;53.160;8.214;2023-03-03T06:48:10;2.80;99.90
23267;DHT22;11802;53.160;8.214;2023-03-03T06:50:36;2.90;99.90
23267;DHT22;11802;53.160;8.214;2023-03-03T06:53:12;2.90;99.90
23267;DHT22;11802;53.160;8.214;2023-03-03T06:55:39;3.00;99.90
23267;DHT22;11802;53.160;8.214;2023-03-03T06:58:26;3.00;99.90
23267;DHT22;11802;53.160;8.214;2023-03-03T07:00:58;3.10;99.90
23267;DHT22;11802;53.160;8.214;2023-03-03T07:03:32;3.10;99.90
23267;DHT22;11802;53.160;8.214;2023-03-03T07:05:58;3.10;99.90
23267;DHT22;11802;53.160;8.214;2023-03-03T07:08:24;3.20;99.90
23267;DHT22;11802;53.160;8.214;2023-03-03T07:10:51;3.10;99.90
23267;DHT22;11802;53.160;8.214;2023-03-03T07:13:25;3.20;99.90
23267;DHT22;11802;53.160;8.214;2023-03-03T07:15:53;3.30;99.90
23267;DHT22;11802;53.160;8.214;2023-03-03T07:18:38;3.30;99.90
23267;DHT22;11802;53.160;8.214;2023-03-03T07:23:39;3.50;99.90
23267;DHT22;11802;53.160;8.214;2023-03-03T07:26:13;3.60;99.90
23267;DHT22;11802;53.160;8.214;2023-03-03T07:28:44;3.60;99.90
23267;DHT22;11802;53.160;8.214;2023-03-03T07:33:51;3.70;99.90
23267;DHT22;11802;53.160;8.214;2023-03-03T07:36:29;3.90;99.90
23267;DHT22;11802;53.160;8.214;2023-03-03T07:39:01;4.10;99.90
23267;DHT22;11802;53.160;8.214;2023-03-03T07:41:30;4.10;99.90
23267;DHT22;11802;53.160;8.214;2023-03-03T07:44:13;4.20;99.90
23267;DHT22;11802;53.160;8.214;2023-03-03T07:46:44;4.20;99.90
23267;DHT22;11802;53.160;8.214;2023-03-03T07:51:46;4.50;99.90
23267;DHT22;11802;53.160;8.214;2023-03-03T07:57:20;4.60;99.90
23267;DHT22;11802;53.160;8.214;2023-03-03T07:59:47;4.60;99.90
23267;DHT22;11802;53.160;8.214;2023-03-03T08:02:29;4.70;99.90
23267;DHT22;11802;53.160;8.214;2023-03-03T08:04:57;4.60;99.90
23267;DHT22;11802;53.160;8.214;2023-03-03T08:07:23;4.70;99.90
23267;DHT22;11802;53.160;8.214;2023-03-03T08:09:56;4.80;99.90
23267;DHT22;11802;53.160;8.214;2023-03-03T08:15:20;4.80;99.90
23267;DHT22;11802;53.160;8.214;2023-03-03T08:17:48;4.90;99.90
23267;DHT22;11802;53.160;8.214;2023-03-03T08:20:45;5.20;99.90
23267;DHT22;11802;53.160;8.214;2023-03-03T08:23:11;5.40;99.90
23267;DHT22;11802;53.160;8.214;2023-03-03T08:25:38;5.70;99.90
23267;DHT22;11802;53.160;8.214;2023-03-03T08:28:05;5.80;99.90
23267;DHT22;11802;53.160;8.214;2023-03-03T08:30:30;5.70;99.90
23267;DHT22;11802;53.160;8.214;2023-03-03T08:32:56;5.50;99.90
23267;DHT22;11802;53.160;8.214;2023-03-03T08:35:23;5.50;99.90
23267;DHT22;11802;53.160;8.214;2023-03-03T08:37:50;5.60;99.90
23267;DHT22;11802;53.160;8.214;2023-03-03T08:40:16;5.70;99.90
23267;DHT22;11802;53.160;8.214;2023-03-03T08:42:41;5.70;99.90
23267;DHT22;11802;53.160;8.214;2023-03-03T08:45:07;5.70;99.90
23267;DHT22;11802;53.160;8.214;2023-03-03T08:47:33;5.70;99.90
23267;DHT22;11802;53.160;8.214;2023-03-03T08:49:58;5.50;99.90
23267;DHT22;11802;53.160;8.214;2023-03-03T08:52:24;5.40;99.90
23267;DHT22;11802;53.160;8.214;2023-03-03T08:54:51;5.60;99.90
23267;DHT22;11802;53.160;8.214;2023-03-03T08:57:16;5.80;99.90
23267;DHT22;11802;53.160;8.214;2023-03-03T08:59:43;6.10;99.90
23267;DHT22;11802;53.160;8.214;2023-03-03T09:02:08;6.10;99.90
23267;DHT22;11802;53.160;8.214;2023-03-03T09:04:34;6.10;99.90
23267;DHT22;11802;53.160;8.214;2023-03-03T09:06:59;6.00;99.90
23267;DHT22;11802;53.160;8.214;2023-03-03T09:09:25;5.90;99.90
23267;DHT22;11802;53.160;8.214;2023-03-03T09:11:56;5.90;99.90
23267;DHT22;11802;53.160;8.214;2023-03-03T09:14:27;6.30;99.90
23267;DHT22;11802;53.160;8.214;2023-03-03T09:16:54;6.70;99.90
23267;DHT22;11802;53.160;8.214;2023-03-03T09:19:26;7.00;99.90
23267;DHT22;11802;53.160;8.214;2023-03-03T09:21:54;7.30;99.90
23267;DHT22;11802;53.160;8.214;2023-03-03T09:24:28;7.70;99.90
23267;DHT22;11802;53.160;8.214;2023-03-03T09:26:55;8.00;99.90
23267;DHT22;11802;53.160;8.214;2023-03-03T09:29:30;8.10;99.90
23267;DHT22;11802;53.160;8.214;2023-03-03T09:34:42;8.00;96.30
23267;DHT22;11802;53.160;8.214;2023-03-03T09:39:43;9.00;64.70
23267;DHT22;11802;53.160;8.214;2023-03-03T09:42:29;9.20;37.20
23267;DHT22;11802;53.160;8.214;2023-03-03T09:50:31;9.70;99.90
23267;DHT22;11802;53.160;8.214;2023-03-03T09:56:34;11.50;99.90
23267;DHT22;11802;53.160;8.214;2023-03-03T10:05:17;11.80;1.00
23267;DHT22;11802;53.160;8.214;2023-03-03T10:07:31;11.80;99.90
23267;DHT22;11802;53.160;8.214;2023-03-03T10:20:55;12.50;99.90
23267;DHT22;11802;53.160;8.214;2023-03-03T10:29:10;12.40;1.00
23267;DHT22;11802;53.160;8.214;2023-03-03T10:34:51;12.80;1.00
23267;DHT22;11802;53.160;8.214;2023-03-03T10:43:39;12.10;99.90
23267;DHT22;11802;53.160;8.214;2023-03-03T11:05:53;11.90;2.30
23267;DHT22;11802;53.160;8.214;2023-03-03T11:14:07;10.90;1.00
23267;DHT22;11802;53.160;8.214;2023-03-03T11:16:49;11.00;1.00
23267;DHT22;11802;53.160;8.214;2023-03-03T11:19:35;11.00;99.90
23267;DHT22;11802;53.160;8.214;2023-03-03T11:27:38;11.00;1.00
23267;DHT22;11802;53.160;8.214;2023-03-03T11:30:30;10.80;99.90
23267;DHT22;11802;53.160;8.214;2023-03-03T11:33:13;10.90;99.90
23267;DHT22;11802;53.160;8.214;2023-03-03T11:36:13;10.50;30.10
23267;DHT22;11802;53.160;8.214;2023-03-03T11:38:57;10.60;1.00
23267;DHT22;11802;53.160;8.214;2023-03-03T11:44:32;10.90;1.00
23267;DHT22;11802;53.160;8.214;2023-03-03T11:47:05;10.90;99.90
23267;DHT22;11802;53.160;8.214;2023-03-03T11:49:38;10.80;1.00
23267;DHT22;11802;53.160;8.214;2023-03-03T11:52:31;10.70;1.00
23267;DHT22;11802;53.160;8.214;2023-03-03T11:55:18;10.70;99.90
23267;DHT22;11802;53.160;8.214;2023-03-03T11:57:52;10.70;1.00
23267;DHT22;11802;53.160;8.214;2023-03-03T12:04:08;10.70;1.00
23267;DHT22;11802;53.160;8.214;2023-03-03T12:07:02;10.80;1.00
23267;DHT22;11802;53.160;8.214;2023-03-03T12:09:43;10.90;1.00
23267;DHT22;11802;53.160;8.214;2023-03-03T12:12:44;10.70;1.00
23267;DHT22;11802;53.160;8.214;2023-03-03T12:32:10;11.50;99.90
23267;DHT22;11802;53.160;8.214;2023-03-03T12:35:04;11.60;1.00
23267;DHT22;11802;53.160;8.214;2023-03-03T12:40:35;11.60;99.90
23267;DHT22;11802;53.160;8.214;2023-03-03T12:43:10;11.70;1.00
23267;DHT22;11802;53.160;8.214;2023-03-03T12:48:16;11.40;1.00
23267;DHT22;11802;53.160;8.214;2023-03-03T12:56:05;10.80;1.00
23267;DHT22;11802;53.160;8.214;2023-03-03T13:04:25;10.70;99.90
23267;DHT22;11802;53.160;8.214;2023-03-03T13:10:12;10.60;99.90
23267;DHT22;11802;53.160;8.214;2023-03-03T13:12:57;10.70;99.90
23267;DHT22;11802;53.160;8.214;2023-03-03T13:15:48;10.70;99.90
23267;DHT22;11802;53.160;8.214;2023-03-03T13:21:02;10.70;99.90
23267;DHT22;11802;53.160;8.214;2023-03-03T13:23:47;10.70;1.00
23267;DHT22;11802;53.160;8.214;2023-03-03T13:29:32;10.90;1.00
23267;DHT22;11802;53.160;8.214;2023-03-03T13:32:03;11.10;99.90
23267;DHT22;11802;53.160;8.214;2023-03-03T13:34:56;11.30;99.90
23267;DHT22;11802;53.160;8.214;2023-03-03T13:37:30;11.20;58.20
23267;DHT22;11802;53.160;8.214;2023-03-03T13:48:35;10.80;1.00
23267;DHT22;11802;53.160;8.214;2023-03-03T13:56:33;10.60;1.00
23267;DHT22;11802;53.160;8.214;2023-03-03T14:01:52;10.40;1.00
23267;DHT22;11802;53.160;8.214;2023-03-03T14:07:12;10.30;1.00
23267;DHT22;11802;53.160;8.214;2023-03-03T14:10:07;10.20;99.90
23267;DHT22;11802;53.160;8.214;2023-03-03T14:12:41;10.30;1.00
23267;DHT22;11802;53.160;8.214;2023-03-03T14:15:27;10.10;1.00
23267;DHT22;11802;53.160;8.214;2023-03-03T14:18:04;10.20;1.00
23267;DHT22;11802;53.160;8.214;2023-03-03T14:20:38;10.10;99.90
23267;DHT22;11802;53.160;8.214;2023-03-03T14:23:29;10.10;99.90
23267;DHT22;11802;53.160;8.214;2023-03-03T14:26:07;10.10;1.00
23267;DHT22;11802;53.160;8.214;2023-03-03T14:28:47;10.20;1.00
23267;DHT22;11802;53.160;8.214;2023-03-03T14:40:13;9.90;1.00
23267;DHT22;11802;53.160;8.214;2023-03-03T14:45:34;10.10;89.10
23267;DHT22;11802;53.160;8.214;2023-03-03T14:48:19;10.10;1.00
23267;DHT22;11802;53.160;8.214;2023-03-03T14:50:55;10.10;99.00
23267;DHT22;11802;53.160;8.214;2023-03-03T14:53:30;10.00;1.00
23267;DHT22;11802;53.160;8.214;2023-03-03T14:58:42;9.90;1.00
23267;DHT22;11802;53.160;8.214;2023-03-03T15:01:11;9.90;99.90
23267;DHT22;11802;53.160;8.214;2023-03-03T15:03:57;9.80;1.00
23267;DHT22;11802;53.160;8.214;2023-03-03T15:06:33;9.80;99.90
23267;DHT22;11802;53.160;8.214;2023-03-03T15:09:26;9.80;1.00
23267;DHT22;11802;53.160;8.214;2023-03-03T15:11:56;9.80;1.00
23267;DHT22;11802;53.160;8.214;2023-03-03T15:14:42;9.70;1.00
23267;DHT22;11802;53.160;8.214;2023-03-03T15:17:23;9.50;1.00
23267;DHT22;11802;53.160;8.214;2023-03-03T15:19:59;9.60;1.00
23267;DHT22;11802;53.160;8.214;2023-03-03T15:22:39;9.60;99.90
23267;DHT22;11802;53.160;8.214;2023-03-03T15:34:05;9.20;1.00
23267;DHT22;11802;53.160;8.214;2023-03-03T15:39:34;9.00;99.90
23267;DHT22;11802;53.160;8.214;2023-03-03T15:42:13;9.00;1.00
23267;DHT22;11802;53.160;8.214;2023-03-03T15:44:56;8.90;99.90
23267;DHT22;11802;53.160;8.214;2023-03-03T15:47:35;9.00;1.00
23267;DHT22;11802;53.160;8.214;2023-03-03T15:55:57;8.90;1.00
23267;DHT22;11802;53.160;8.214;2023-03-03T16:01:16;8.80;99.90
23267;DHT22;11802;53.160;8.214;2023-03-03T16:13:03;8.50;99.90
23267;DHT22;11802;53.160;8.214;2023-03-03T16:20:45;8.30;99.90
23267;DHT22;11802;53.160;8.214;2023-03-03T16:23:37;8.20;99.90
23267;DHT22;11802;53.160;8.214;2023-03-03T16:31:35;8.10;99.90
23267;DHT22;11802;53.160;8.214;2023-03-03T16:40:07;8.00;1.00
23267;DHT22;11802;53.160;8.214;2023-03-03T16:42:35;8.00;99.90
23267;DHT22;11802;53.160;8.214;2023-03-03T16:45:23;8.00;99.90
23267;DHT22;11802;53.160;8.214;2023-03-03T16:50:38;7.80;99.90
23267;DHT22;11802;53.160;8.214;2023-03-03T16:56:05;7.60;1.00
23267;DHT22;11802;53.160;8.214;2023-03-03T17:01:54;7.50;1.00
23267;DHT22;11802;53.160;8.214;2023-03-03T17:04:55;7.50;1.00
23267;DHT22;11802;53.160;8.214;2023-03-03T17:21:57;7.40;1.00
23267;DHT22;11802;53.160;8.214;2023-03-03T17:24:40;7.30;1.00
23267;DHT22;11802;53.160;8.214;2023-03-03T17:27:27;7.40;1.00
23267;DHT22;11802;53.160;8.214;2023-03-03T17:33:24;7.30;1.00
23267;DHT22;11802;53.160;8.214;2023-03-03T17:41:25;7.10;1.00
23267;DHT22;11802;53.160;8.214;2023-03-03T17:46:57;7.00;1.00
23267;DHT22;11802;53.160;8.214;2023-03-03T17:57:48;6.90;1.00
23267;DHT22;11802;53.160;8.214;2023-03-03T18:01:00;6.90;1.00
23267;DHT22;11802;53.160;8.214;2023-03-03T18:03:53;6.90;1.00
23267;DHT22;11802;53.160;8.214;2023-03-03T18:15:04;6.90;1.00
23267;DHT22;11802;53.160;8.214;2023-03-03T18:18:22;6.80;1.00
23267;DHT22;11802;53.160;8.214;2023-03-03T18:26:04;6.70;1.00
23267;DHT22;11802;53.160;8.214;2023-03-03T18:28:49;6.70;1.00
23267;DHT22;11802;53.160;8.214;2023-03-03T18:31:26;6.80;11.80
23267;DHT22;11802;53.160;8.214;2023-03-03T18:34:08;6.80;1.00
23267;DHT22;11802;53.160;8.214;2023-03-03T18:36:37;6.70;1.00
23267;DHT22;11802;53.160;8.214;2023-03-03T18:39:04;6.70;1.00
23267;DHT22;11802;53.160;8.214;2023-03-03T18:41:32;6.80;1.00
23267;DHT22;11802;53.160;8.214;2023-03-03T18:44:28;6.80;1.00
23267;DHT22;11802;53.160;8.214;2023-03-03T18:46:54;6.90;58.40
23267;DHT22;11802;53.160;8.214;2023-03-03T18:49:50;6.80;1.90
23267;DHT22;11802;53.160;8.214;2023-03-03T18:55:00;6.80;1.00
23267;DHT22;11802;53.160;8.214;2023-03-03T18:57:27;6.80;1.00
23267;DHT22;11802;53.160;8.214;2023-03-03T19:00:22;6.70;1.00
23267;DHT22;11802;53.160;8.214;2023-03-03T19:02:56;6.70;1.00
23267;DHT22;11802;53.160;8.214;2023-03-03T19:05:23;6.70;1.00
23267;DHT22;11802;53.160;8.214;2023-03-03T19:08:02;6.70;1.00
23267;DHT22;11802;53.160;8.214;2023-03-03T19:10:48;6.70;13.70
23267;DHT22;11802;53.160;8.214;2023-03-03T19:16:09;6.70;1.00
23267;DHT22;11802;53.160;8.214;2023-03-03T19:18:59;6.60;1.00
23267;DHT22;11802;53.160;8.214;2023-03-03T19:21:31;6.60;1.00
23267;DHT22;11802;53.160;8.214;2023-03-03T19:24:36;6.60;1.00
23267;DHT22;11802;53.160;8.214;2023-03-03T19:27:06;6.60;1.00
23267;DHT22;11802;53.160;8.214;2023-03-03T19:43:51;6.50;1.00
23267;DHT22;11802;53.160;8.214;2023-03-03T19:46:34;6.50;1.00
23267;DHT22;11802;53.160;8.214;2023-03-03T19:51:39;6.50;1.00
23267;DHT22;11802;53.160;8.214;2023-03-03T19:54:34;6.60;26.30
23267;DHT22;11802;53.160;8.214;2023-03-03T19:57:05;6.50;1.00
23267;DHT22;11802;53.160;8.214;2023-03-03T19:59:40;6.50;1.00
23267;DHT22;11802;53.160;8.214;2023-03-03T20:05:31;6.40;1.00
23267;DHT22;11802;53.160;8.214;2023-03-03T20:18:58;6.40;4.70
23267;DHT22;11802;53.160;8.214;2023-03-03T20:21:39;6.40;30.70
23267;DHT22;11802;53.160;8.214;2023-03-03T20:36:09;6.40;1.00
23267;DHT22;11802;53.160;8.214;2023-03-03T20:38:55;6.40;1.00
23267;DHT22;11802;53.160;8.214;2023-03-03T20:44:12;6.40;1.00
23267;DHT22;11802;53.160;8.214;2023-03-03T20:46:58;6.30;1.00
23267;DHT22;11802;53.160;8.214;2023-03-03T20:52:41;6.40;18.20
23267;DHT22;11802;53.160;8.214;2023-03-03T20:58:00;6.40;1.00
23267;DHT22;11802;53.160;8.214;2023-03-03T21:00:46;6.50;22.40
23267;DHT22;11802;53.160;8.214;2023-03-03T21:03:28;6.40;1.00
23267;DHT22;11802;53.160;8.214;2023-03-03T21:06:04;6.40;1.00
23267;DHT22;11802;53.160;8.214;2023-03-03T21:11:21;6.50;1.00
23267;DHT22;11802;53.160;8.214;2023-03-03T21:13:51;6.50;1.00
23267;DHT22;11802;53.160;8.214;2023-03-03T21:19:08;6.40;3.90
23267;DHT22;11802;53.160;8.214;2023-03-03T21:24:01;6.40;18.50
23267;DHT22;11802;53.160;8.214;2023-03-03T21:26:58;6.50;1.00
23267;DHT22;11802;53.160;8.214;2023-03-03T21:29:34;6.50;1.00
23267;DHT22;11802;53.160;8.214;2023-03-03T21:32:05;6.40;2.90
23267;DHT22;11802;53.160;8.214;2023-03-03T21:34:35;6.40;24.80
23267;DHT22;11802;53.160;8.214;2023-03-03T21:37:06;6.40;23.20
23267;DHT22;11802;53.160;8.214;2023-03-03T21:39:34;6.50;9.80
23267;DHT22;11802;53.160;8.214;2023-03-03T21:42:02;6.40;1.00
23267;DHT22;11802;53.160;8.214;2023-03-03T21:44:37;6.40;1.00
23267;DHT22;11802;53.160;8.214;2023-03-03T21:47:05;6.40;48.10
23267;DHT22;11802;53.160;8.214;2023-03-03T21:49:31;6.40;7.00
23267;DHT22;11802;53.160;8.214;2023-03-03T21:51:57;6.40;8.60
23267;DHT22;11802;53.160;8.214;2023-03-03T21:54:22;6.40;5.50
23267;DHT22;11802;53.160;8.214;2023-03-03T21:56:48;6.40;5.90
23267;DHT22;11802;53.160;8.214;2023-03-03T21:59:15;6.40;28.50
23267;DHT22;11802;53.160;8.214;2023-03-03T22:01:40;6.50;44.20
23267;DHT22;11802;53.160;8.214;2023-03-03T22:04:06;6.40;47.60
23267;DHT22;11802;53.160;8.214;2023-03-03T22:06:31;6.40;46.00
23267;DHT22;11802;53.160;8.214;2023-03-03T22:08:57;6.40;30.00
23267;DHT22;11802;53.160;8.214;2023-03-03T22:11:23;6.40;41.60
23267;DHT22;11802;53.160;8.214;2023-03-03T22:13:48;6.30;45.40
23267;DHT22;11802;53.160;8.214;2023-03-03T22:16:14;6.30;51.80
23267;DHT22;11802;53.160;8.214;2023-03-03T22:18:40;6.20;42.10
23267;DHT22;11802;53.160;8.214;2023-03-03T22:21:05;6.20;52.90